createdAt,value
2023-03-30T00:01:27.383Z,100.00
2023-03-30T00:03:54.369Z,100.00
2023-03-30T00:06:21.714Z,100.00
2023-03-30T00:08:49.691Z,100.00
2023-03-30T00:11:18.196Z,100.00
2023-03-30T00:13:45.074Z,100.00
2023-03-30T00:16:13.756Z,100.00
2023-03-30T00:18:41.362Z,100.00
2023-03-30T00:21:08.951Z,100.00
2023-03-30T00:23:35.826Z,100.00
2023-03-30T00:26:03.470Z,100.00
2023-03-30T00:28:31.671Z,100.00
2023-03-30T00:30:58.804Z,100.00
2023-03-30T00:33:37.266Z,100.00
2023-03-30T00:36:09.303Z,100.00
2023-03-30T00:38:36.498Z,100.00
2023-03-30T00:41:03.515Z,100.00
2023-03-30T00:43:31.849Z,100.00
2023-03-30T00:45:59.238Z,100.00
2023-03-30T00:48:30.546Z,100.00
2023-03-30T00:51:02.190Z,100.00
2023-03-30T00:53:34.157Z,100.00
2023-03-30T00:56:04.786Z,100.00
2023-03-30T00:58:35.225Z,100.00
2023-03-30T01:01:05.216Z,100.00
2023-03-30T01:03:34.639Z,100.00
2023-03-30T01:06:05.340Z,100.00
2023-03-30T01:08:32.706Z,100.00
2023-03-30T01:11:00.000Z,100.00
2023-03-30T01:13:27.965Z,100.00
2023-03-30T01:16:10.260Z,100.00
2023-03-30T01:18:48.797Z,100.00
2023-03-30T01:21:41.956Z,100.00
2023-03-30T01:24:39.925Z,100.00
2023-03-30T01:27:18.469Z,100.00
2023-03-30T01:30:04.855Z,100.00
2023-03-30T01:33:16.584Z,100.00
2023-03-30T01:36:22.903Z,100.00
2023-03-30T01:39:29.753Z,100.00
2023-03-30T01:42:00.641Z,100.00
2023-03-30T01:44:34.602Z,100.00
2023-03-30T01:47:10.892Z,100.00
2023-03-30T01:49:45.257Z,100.00
2023-03-30T01:52:18.560Z,100.00
2023-03-30T01:54:51.290Z,100.00
2023-03-30T01:57:21.959Z,100.00
2023-03-30T01:59:55.840Z,100.00
2023-03-30T02:02:27.567Z,100.00
2023-03-30T02:04:56.493Z,100.00
2023-03-30T02:07:28.509Z,100.00
2023-03-30T02:10:01.937Z,100.00
2023-03-30T02:12:30.636Z,100.00
2023-03-30T02:15:01.218Z,100.00
2023-03-30T02:19:58.391Z,100.00
2023-03-30T02:22:27.700Z,100.00
2023-03-30T02:24:57.662Z,100.00
2023-03-30T02:27:26.265Z,100.00
2023-03-30T02:29:53.602Z,100.00
2023-03-30T02:32:24.567Z,100.00
2023-03-30T02:35:23.158Z,100.00
2023-03-30T02:38:21.754Z,100.00
2023-03-30T02:40:59.792Z,100.00
2023-03-30T02:43:35.507Z,100.00
2023-03-30T02:46:20.145Z,100.00
2023-03-30T02:48:56.651Z,100.00
2023-03-30T02:51:39.238Z,100.00
2023-03-30T02:54:18.687Z,100.00
2023-03-30T02:56:54.496Z,100.00
2023-03-30T02:59:28.355Z,100.00
2023-03-30T03:01:59.448Z,100.00
2023-03-30T03:04:28.954Z,100.00
2023-03-30T03:06:56.208Z,100.00
2023-03-30T03:09:23.773Z,100.00
2023-03-30T03:11:53.248Z,100.00
2023-03-30T03:14:20.286Z,100.00
2023-03-30T03:16:49.492Z,100.00
2023-03-30T03:19:16.317Z,100.00
2023-03-30T03:21:43.458Z,100.00
2023-03-30T03:24:10.231Z,100.00
2023-03-30T03:26:37.307Z,100.00
2023-03-30T03:29:05.738Z,100.00
2023-03-30T03:31:32.687Z,100.00
2023-03-30T03:33:59.843Z,100.00
2023-03-30T03:36:26.943Z,100.00
2023-03-30T03:38:54.032Z,100.00
2023-03-30T03:41:20.739Z,100.00
2023-03-30T03:43:47.900Z,100.00
2023-03-30T03:46:16.372Z,100.00
2023-03-30T03:48:43.100Z,100.00
2023-03-30T03:51:09.880Z,100.00
2023-03-30T03:53:36.692Z,100.00
2023-03-30T03:56:03.605Z,100.00
2023-03-30T03:58:30.731Z,100.00
2023-03-30T04:01:01.897Z,100.00
2023-03-30T04:03:30.791Z,100.00
2023-03-30T04:06:01.567Z,100.00
2023-03-30T04:08:28.729Z,100.00
2023-03-30T04:10:55.860Z,100.00
2023-03-30T04:13:22.688Z,100.00
2023-03-30T04:15:49.363Z,100.00
2023-03-30T04:18:16.419Z,100.00
2023-03-30T04:20:44.862Z,100.00
2023-03-30T04:23:11.695Z,100.00
2023-03-30T04:25:38.709Z,100.00
2023-03-30T04:28:06.049Z,100.00
2023-03-30T04:30:32.696Z,100.00
2023-03-30T04:32:59.544Z,100.00
2023-03-30T04:35:26.370Z,100.00
2023-03-30T04:37:54.837Z,100.00
2023-03-30T04:40:21.468Z,100.00
2023-03-30T04:42:48.124Z,100.00
2023-03-30T04:45:14.948Z,100.00
2023-03-30T04:47:42.123Z,100.00
2023-03-30T04:50:10.518Z,100.00
2023-03-30T04:52:37.422Z,100.00
2023-03-30T04:55:06.898Z,100.00
2023-03-30T04:57:33.634Z,100.00
2023-03-30T05:00:00.797Z,100.00
2023-03-30T05:02:28.752Z,100.00
2023-03-30T05:04:55.621Z,100.00
2023-03-30T05:07:22.710Z,100.00
2023-03-30T05:09:49.520Z,100.00
2023-03-30T05:12:18.004Z,100.00
2023-03-30T05:14:44.825Z,100.00
2023-03-30T05:17:11.548Z,100.00
2023-03-30T05:19:38.606Z,100.00
2023-03-30T05:22:05.385Z,100.00
2023-03-30T05:24:32.139Z,100.00
2023-03-30T05:26:58.963Z,100.00
2023-03-30T05:29:27.272Z,100.00
2023-03-30T05:31:53.905Z,100.00
2023-03-30T05:34:20.736Z,100.00
2023-03-30T05:36:47.479Z,100.00
2023-03-30T05:39:14.262Z,100.00
2023-03-30T05:41:41.338Z,100.00
2023-03-30T05:44:08.131Z,100.00
2023-03-30T05:46:36.630Z,100.00
2023-03-30T05:49:04.019Z,100.00
2023-03-30T05:51:31.105Z,100.00
2023-03-30T05:53:58.128Z,100.00
2023-03-30T05:56:25.118Z,100.00
2023-03-30T05:58:51.926Z,100.00
2023-03-30T06:01:18.638Z,100.00
2023-03-30T06:03:48.232Z,100.00
2023-03-30T06:06:15.281Z,100.00
2023-03-30T06:08:42.329Z,100.00
2023-03-30T06:11:09.174Z,100.00
2023-03-30T06:13:36.213Z,100.00
2023-03-30T06:16:03.624Z,100.00
2023-03-30T06:18:30.805Z,100.00
2023-03-30T06:20:58.979Z,100.00
2023-03-30T06:23:26.044Z,100.00
2023-03-30T06:25:53.194Z,100.00
2023-03-30T06:28:20.431Z,100.00
2023-03-30T06:30:47.443Z,100.00
2023-03-30T06:33:14.445Z,100.00
2023-03-30T06:35:45.259Z,100.00
2023-03-30T06:38:13.803Z,100.00
2023-03-30T06:40:41.329Z,100.00
2023-03-30T06:43:08.924Z,100.00
2023-03-30T06:45:35.791Z,100.00
2023-03-30T06:48:02.738Z,100.00
2023-03-30T06:50:29.596Z,100.00
2023-03-30T06:52:56.487Z,100.00
2023-03-30T06:55:25.273Z,100.00
2023-03-30T06:57:52.056Z,100.00
2023-03-30T07:00:20.392Z,100.00
2023-03-30T07:02:47.211Z,100.00
2023-03-30T07:05:14.097Z,100.00
2023-03-30T07:07:41.424Z,100.00
2023-03-30T07:10:08.678Z,100.00
2023-03-30T07:12:36.885Z,100.00
2023-03-30T07:15:04.136Z,100.00
2023-03-30T07:17:30.882Z,100.00
2023-03-30T07:19:58.000Z,100.00
2023-03-30T07:22:24.888Z,100.00
2023-03-30T07:24:51.732Z,100.00
2023-03-30T07:27:18.640Z,100.00
2023-03-30T07:29:47.167Z,100.00
2023-03-30T07:32:14.117Z,100.00
2023-03-30T07:34:40.985Z,100.00
2023-03-30T07:37:07.844Z,100.00
2023-03-30T07:39:34.935Z,99.84
2023-03-30T07:42:01.916Z,99.07
2023-03-30T07:44:28.732Z,99.01
2023-03-30T07:46:57.556Z,99.10
2023-03-30T07:49:24.965Z,99.24
2023-03-30T07:51:53.775Z,98.84
2023-03-30T07:54:20.602Z,97.99
2023-03-30T07:56:47.348Z,97.35
2023-03-30T07:59:14.173Z,96.95
2023-03-30T08:01:40.869Z,96.89
2023-03-30T08:04:09.071Z,96.65
2023-03-30T08:06:35.898Z,96.99
2023-03-30T08:09:02.983Z,96.34
2023-03-30T08:11:29.754Z,95.73
2023-03-30T08:13:56.403Z,95.32
2023-03-30T08:16:23.919Z,93.75
2023-03-30T08:18:51.921Z,92.96
2023-03-30T08:21:20.510Z,91.41
2023-03-30T08:23:47.316Z,90.84
2023-03-30T08:26:14.140Z,90.67
2023-03-30T08:28:41.240Z,90.14
2023-03-30T08:31:09.783Z,90.15
2023-03-30T08:33:37.007Z,91.31
2023-03-30T08:36:04.488Z,92.49
2023-03-30T08:38:33.008Z,93.46
2023-03-30T08:41:00.150Z,94.06
2023-03-30T08:43:43.021Z,93.38
2023-03-30T08:46:14.529Z,93.27
2023-03-30T08:48:42.165Z,92.66
2023-03-30T08:51:18.851Z,94.92
2023-03-30T08:53:48.515Z,97.44
2023-03-30T08:56:20.712Z,99.27
2023-03-30T08:58:58.330Z,99.63
2023-03-30T09:01:33.668Z,100.00
2023-03-30T09:04:16.575Z,100.00
2023-03-30T09:06:50.197Z,100.00
2023-03-30T09:09:21.452Z,100.00
2023-03-30T09:11:54.149Z,100.00
2023-03-30T09:14:31.621Z,100.00
2023-03-30T09:17:03.926Z,100.00
2023-03-30T09:19:35.449Z,100.00
2023-03-30T09:22:05.600Z,100.00
2023-03-30T09:24:34.852Z,96.77
2023-03-30T09:27:07.866Z,96.24
2023-03-30T09:29:43.661Z,97.45
2023-03-30T09:32:14.860Z,96.30
2023-03-30T09:34:47.128Z,95.84
2023-03-30T09:37:15.833Z,95.07
2023-03-30T09:39:44.420Z,96.48
2023-03-30T09:42:21.737Z,96.80
2023-03-30T09:44:52.082Z,95.68
2023-03-30T09:47:24.215Z,95.78
2023-03-30T09:49:56.625Z,95.76
2023-03-30T09:52:25.976Z,91.20
2023-03-30T09:54:54.511Z,91.34
2023-03-30T09:57:28.613Z,91.20
2023-03-30T09:59:56.797Z,91.91
2023-03-30T10:02:24.813Z,90.65
2023-03-30T10:05:03.785Z,91.23
2023-03-30T10:07:35.905Z,89.37
2023-03-30T10:10:15.278Z,92.54
2023-03-30T10:12:42.694Z,89.12
2023-03-30T10:15:16.538Z,87.41
2023-03-30T10:17:46.942Z,88.02
2023-03-30T10:20:25.453Z,90.26
2023-03-30T10:22:54.403Z,92.48
2023-03-30T10:25:26.291Z,91.64
2023-03-30T10:27:56.486Z,90.54
2023-03-30T10:30:26.279Z,91.94
2023-03-30T10:32:56.232Z,91.67
2023-03-30T10:35:26.372Z,89.65
2023-03-30T10:37:56.870Z,92.46
2023-03-30T10:40:34.902Z,91.17
2023-03-30T10:43:03.128Z,90.83
2023-03-30T10:45:37.699Z,93.81
2023-03-30T10:48:19.490Z,96.55
2023-03-30T10:50:56.141Z,97.89
2023-03-30T10:53:35.018Z,100.00
2023-03-30T10:56:16.161Z,99.63
2023-03-30T10:58:56.404Z,98.19
2023-03-30T11:01:32.769Z,100.00
2023-03-30T11:04:12.778Z,100.00
2023-03-30T11:06:44.490Z,100.00
2023-03-30T11:09:16.515Z,100.00
2023-03-30T11:11:51.169Z,100.00
2023-03-30T11:14:25.693Z,100.00
2023-03-30T11:16:56.753Z,100.00
2023-03-30T11:19:26.869Z,100.00
2023-03-30T11:22:02.477Z,100.00
2023-03-30T11:24:29.651Z,100.00
2023-03-30T11:27:03.692Z,100.00
2023-03-30T11:29:36.178Z,100.00
2023-03-30T11:32:17.225Z,100.00
2023-03-30T11:34:54.912Z,100.00
2023-03-30T11:37:28.860Z,100.00
2023-03-30T11:40:00.206Z,100.00
2023-03-30T11:42:31.347Z,100.00
2023-03-30T11:44:59.212Z,100.00
2023-03-30T11:47:42.025Z,100.00
2023-03-30T11:50:20.729Z,100.00
2023-03-30T11:52:59.762Z,100.00
2023-03-30T11:55:39.987Z,100.00
2023-03-30T11:58:20.605Z,100.00
2023-03-30T12:01:00.469Z,100.00
2023-03-30T12:03:36.940Z,100.00
2023-03-30T12:06:27.015Z,100.00
2023-03-30T12:09:17.570Z,100.00
2023-03-30T12:11:49.894Z,100.00
2023-03-30T12:15:02.357Z,100.00
2023-03-30T12:17:45.257Z,100.00
2023-03-30T12:20:33.631Z,100.00
2023-03-30T12:23:09.918Z,98.79
2023-03-30T12:25:57.142Z,91.64
2023-03-30T12:28:34.966Z,88.57
2023-03-30T12:31:14.574Z,84.14
2023-03-30T12:33:46.160Z,87.13
2023-03-30T12:36:30.751Z,90.44
2023-03-30T12:38:58.925Z,92.67
2023-03-30T12:41:27.624Z,92.29
2023-03-30T12:44:20.624Z,89.70
2023-03-30T12:47:00.586Z,99.91
2023-03-30T12:49:40.428Z,100.00
2023-03-30T12:52:12.844Z,100.00
2023-03-30T12:55:04.961Z,100.00
2023-03-30T12:57:41.379Z,100.00
2023-03-30T13:00:32.277Z,100.00
2023-03-30T13:03:28.733Z,100.00
2023-03-30T13:06:00.890Z,100.00
2023-03-30T13:08:32.697Z,99.56
2023-03-30T13:11:07.900Z,100.00
2023-03-30T13:14:15.222Z,98.36
2023-03-30T13:17:10.603Z,98.58
2023-03-30T13:19:44.246Z,95.98
2023-03-30T13:22:29.181Z,93.20
2023-03-30T13:25:00.032Z,88.86
2023-03-30T13:27:31.276Z,84.90
2023-03-30T13:30:00.406Z,84.28
2023-03-30T13:32:44.180Z,81.71
2023-03-30T13:35:35.206Z,84.29
2023-03-30T13:38:25.920Z,89.99
2023-03-30T13:41:05.215Z,89.72
2023-03-30T13:43:46.389Z,87.73
2023-03-30T13:46:18.396Z,86.95
2023-03-30T13:49:02.836Z,87.84
2023-03-30T13:51:31.847Z,85.97
2023-03-30T13:54:03.552Z,82.73
2023-03-30T13:56:34.141Z,82.85
2023-03-30T13:59:06.069Z,83.43
2023-03-30T14:01:34.029Z,80.79
2023-03-30T14:04:01.149Z,77.49
2023-03-30T14:06:30.572Z,79.60
2023-03-30T14:09:13.795Z,80.23
2023-03-30T14:11:44.948Z,80.65
2023-03-30T14:14:17.840Z,80.00
2023-03-30T14:16:45.177Z,79.20
2023-03-30T14:19:20.442Z,80.06
2023-03-30T14:21:47.840Z,78.14
2023-03-30T14:24:18.378Z,75.03
2023-03-30T14:26:46.898Z,73.86
2023-03-30T14:29:28.295Z,71.33
2023-03-30T14:32:08.062Z,72.68
2023-03-30T14:34:35.324Z,70.85
2023-03-30T14:37:05.496Z,73.91
2023-03-30T14:39:40.091Z,73.32
2023-03-30T14:42:17.241Z,73.22
2023-03-30T14:44:45.971Z,70.66
2023-03-30T14:47:13.275Z,69.74
2023-03-30T14:49:43.094Z,66.23
2023-03-30T14:52:16.784Z,67.14
2023-03-30T14:54:57.706Z,68.27
2023-03-30T14:57:30.732Z,69.89
2023-03-30T15:00:00.397Z,70.05
2023-03-30T15:02:30.535Z,69.79
2023-03-30T15:04:59.166Z,70.55
2023-03-30T15:07:30.582Z,70.87
2023-03-30T15:10:00.575Z,71.44
2023-03-30T15:12:32.139Z,72.79
2023-03-30T15:15:03.494Z,70.04
2023-03-30T15:17:32.593Z,70.78
2023-03-30T15:20:02.516Z,67.98
2023-03-30T15:22:33.338Z,71.83
2023-03-30T15:25:05.524Z,71.23
2023-03-30T15:27:36.138Z,73.19
2023-03-30T15:30:03.846Z,73.76
2023-03-30T15:32:33.684Z,73.90
2023-03-30T15:35:08.532Z,74.56
2023-03-30T15:37:36.121Z,74.03
2023-03-30T15:40:26.305Z,72.06
2023-03-30T15:43:11.888Z,70.49
2023-03-30T15:45:39.241Z,70.58
2023-03-30T15:48:10.002Z,71.54
2023-03-30T15:50:37.343Z,71.74
2023-03-30T15:53:04.950Z,71.60
2023-03-30T15:55:33.904Z,70.26
2023-03-30T15:58:01.062Z,68.84
2023-03-30T16:00:29.599Z,68.01
2023-03-30T16:02:58.446Z,71.27
2023-03-30T16:05:28.751Z,71.48
2023-03-30T16:07:56.197Z,72.19
2023-03-30T16:10:26.346Z,73.34
2023-03-30T16:12:56.218Z,71.51
2023-03-30T16:15:26.168Z,70.57
2023-03-30T16:17:53.572Z,72.79
2023-03-30T16:20:22.301Z,73.43
2023-03-30T16:22:50.138Z,76.22
2023-03-30T16:25:18.368Z,76.44
2023-03-30T16:27:46.245Z,79.10
2023-03-30T16:30:20.173Z,84.75
2023-03-30T16:32:47.356Z,89.88
2023-03-30T16:35:14.713Z,90.94
2023-03-30T16:37:41.749Z,90.76
2023-03-30T16:40:26.341Z,88.01
2023-03-30T16:42:54.267Z,87.14
2023-03-30T16:45:22.496Z,86.16
2023-03-30T16:47:49.292Z,86.64
2023-03-30T16:50:21.092Z,85.08
2023-03-30T16:52:48.347Z,85.79
2023-03-30T16:55:16.185Z,84.62
2023-03-30T16:57:43.537Z,81.60
2023-03-30T17:00:18.010Z,79.28
2023-03-30T17:02:46.719Z,79.67
2023-03-30T17:05:14.073Z,78.47
2023-03-30T17:07:41.365Z,81.25
2023-03-30T17:10:18.678Z,79.66
2023-03-30T17:12:45.488Z,80.97
2023-03-30T17:15:12.562Z,81.99
2023-03-30T17:17:39.699Z,84.34
2023-03-30T17:20:29.059Z,85.83
2023-03-30T17:22:56.136Z,86.55
2023-03-30T17:25:23.857Z,87.31
2023-03-30T17:27:52.170Z,87.54
2023-03-30T17:30:23.018Z,87.64
2023-03-30T17:32:50.647Z,87.97
2023-03-30T17:35:18.627Z,88.57
2023-03-30T17:37:47.333Z,88.66
2023-03-30T17:40:20.045Z,88.70
2023-03-30T17:42:48.202Z,89.47
2023-03-30T17:45:17.881Z,89.62
2023-03-30T17:47:46.119Z,89.67
2023-03-30T17:50:22.464Z,90.38
2023-03-30T17:52:51.369Z,89.68
2023-03-30T17:55:21.624Z,88.06
2023-03-30T17:57:48.506Z,86.32
2023-03-30T18:00:23.533Z,85.26
2023-03-30T18:02:51.644Z,83.59
2023-03-30T18:05:20.224Z,83.14
2023-03-30T18:07:47.832Z,82.24
2023-03-30T18:10:22.892Z,82.41
2023-03-30T18:12:50.298Z,82.91
2023-03-30T18:15:19.019Z,81.83
2023-03-30T18:17:45.934Z,81.67
2023-03-30T18:20:32.604Z,81.19
2023-03-30T18:23:00.191Z,81.13
2023-03-30T18:25:32.469Z,81.15
2023-03-30T18:28:00.486Z,82.17
2023-03-30T18:30:29.626Z,82.15
2023-03-30T18:32:57.575Z,82.85
2023-03-30T18:35:26.640Z,83.64
2023-03-30T18:37:54.168Z,85.55
2023-03-30T18:40:24.807Z,86.14
2023-03-30T18:42:53.699Z,87.28
2023-03-30T18:45:23.394Z,88.56
2023-03-30T18:47:50.476Z,88.62
2023-03-30T18:50:21.836Z,89.05
2023-03-30T18:52:49.217Z,89.33
2023-03-30T18:55:16.904Z,89.62
2023-03-30T18:57:44.220Z,89.48
2023-03-30T19:00:19.510Z,89.31
2023-03-30T19:02:46.345Z,88.54
2023-03-30T19:05:13.404Z,87.13
2023-03-30T19:07:40.634Z,86.35
2023-03-30T19:10:11.112Z,85.14
2023-03-30T19:12:37.996Z,84.28
2023-03-30T19:15:06.107Z,83.07
2023-03-30T19:17:34.331Z,82.89
2023-03-30T19:20:01.212Z,82.75
2023-03-30T19:22:28.355Z,83.27
2023-03-30T19:24:55.107Z,83.28
2023-03-30T19:27:22.130Z,83.08
2023-03-30T19:29:48.920Z,82.99
2023-03-30T19:32:16.067Z,82.61
2023-03-30T19:34:44.292Z,82.60
2023-03-30T19:37:11.065Z,82.78
2023-03-30T19:39:37.895Z,83.09
2023-03-30T19:42:05.297Z,83.05
2023-03-30T19:44:32.995Z,83.66
2023-03-30T19:46:59.822Z,84.31
2023-03-30T19:49:26.634Z,84.73
2023-03-30T19:51:54.844Z,85.43
2023-03-30T19:54:21.658Z,85.75
2023-03-30T19:56:48.805Z,86.35
2023-03-30T19:59:15.912Z,86.75
2023-03-30T20:01:43.044Z,86.43
2023-03-30T20:04:10.077Z,85.98
2023-03-30T20:06:36.946Z,85.66
2023-03-30T20:09:05.633Z,85.07
2023-03-30T20:11:32.481Z,84.30
2023-03-30T20:13:59.517Z,83.20
2023-03-30T20:16:26.405Z,82.07
2023-03-30T20:18:54.070Z,81.86
2023-03-30T20:21:22.247Z,82.52
2023-03-30T20:23:49.068Z,82.67
2023-03-30T20:26:17.677Z,83.30
2023-03-30T20:28:44.695Z,83.21
2023-03-30T20:31:12.441Z,84.33
2023-03-30T20:33:39.360Z,84.62
2023-03-30T20:36:07.094Z,86.45
2023-03-30T20:38:34.026Z,86.09
2023-03-30T20:41:02.601Z,87.06
2023-03-30T20:43:30.909Z,87.99
2023-03-30T20:45:58.094Z,88.62
2023-03-30T20:48:24.986Z,88.64
2023-03-30T20:50:51.883Z,89.83
2023-03-30T20:53:18.661Z,90.89
2023-03-30T20:55:45.818Z,93.79
2023-03-30T20:58:12.614Z,96.38
2023-03-30T21:00:41.102Z,96.03
2023-03-30T21:03:07.914Z,96.68
2023-03-30T21:05:34.625Z,96.98
2023-03-30T21:08:01.682Z,96.70
2023-03-30T21:10:28.453Z,97.27
2023-03-30T21:12:55.235Z,97.58
2023-03-30T21:15:22.061Z,98.02
2023-03-30T21:17:50.160Z,98.78
2023-03-30T21:20:17.239Z,100.00
2023-03-30T21:22:44.152Z,100.00
2023-03-30T21:25:11.018Z,100.00
2023-03-30T21:27:37.777Z,100.00
2023-03-30T21:30:05.691Z,100.00
2023-03-30T21:32:32.998Z,100.00
2023-03-30T21:35:02.947Z,100.00
2023-03-30T21:37:29.786Z,100.00
2023-03-30T21:39:56.838Z,100.00
2023-03-30T21:42:23.661Z,100.00
2023-03-30T21:44:50.491Z,100.00
2023-03-30T21:47:17.625Z,100.00
2023-03-30T21:49:44.697Z,100.00
2023-03-30T21:52:13.185Z,100.00
2023-03-30T21:54:39.943Z,100.00
2023-03-30T21:57:07.097Z,100.00
2023-03-30T21:59:34.201Z,100.00
2023-03-30T22:02:01.201Z,100.00
2023-03-30T22:04:28.192Z,100.00
2023-03-30T22:06:55.326Z,100.00
2023-03-30T22:09:23.761Z,100.00
2023-03-30T22:11:50.879Z,100.00
2023-03-30T22:14:17.697Z,100.00
2023-03-30T22:16:44.647Z,100.00
2023-03-30T22:19:11.563Z,100.00
2023-03-30T22:21:38.399Z,100.00
2023-03-30T22:24:07.231Z,100.00
2023-03-30T22:26:36.125Z,100.00
2023-03-30T22:29:03.957Z,100.00
2023-03-30T22:31:30.886Z,100.00
2023-03-30T22:33:58.012Z,100.00
2023-03-30T22:36:26.723Z,100.00
2023-03-30T22:38:55.821Z,100.00
2023-03-30T22:41:22.514Z,100.00
2023-03-30T22:43:51.192Z,100.00
2023-03-30T22:46:18.364Z,100.00
2023-03-30T22:48:45.141Z,100.00
2023-03-30T22:51:12.007Z,100.00
2023-03-30T22:53:39.099Z,100.00
2023-03-30T22:56:07.076Z,100.00
2023-03-30T22:58:33.941Z,100.00
2023-03-30T23:01:03.495Z,100.00
2023-03-30T23:03:30.568Z,100.00
2023-03-30T23:05:57.328Z,100.00
2023-03-30T23:08:24.056Z,100.00
2023-03-30T23:10:52.255Z,100.00
2023-03-30T23:13:19.062Z,100.00
2023-03-30T23:15:46.176Z,100.00
2023-03-30T23:18:14.710Z,100.00
2023-03-30T23:20:41.660Z,100.00
2023-03-30T23:23:08.748Z,100.00
2023-03-30T23:25:35.739Z,100.00
2023-03-30T23:28:02.562Z,100.00
2023-03-30T23:30:29.683Z,100.00
2023-03-30T23:32:56.741Z,100.00
2023-03-30T23:35:24.898Z,100.00
2023-03-30T23:37:51.776Z,100.00
2023-03-30T23:40:18.561Z,100.00
2023-03-30T23:42:45.654Z,100.00
2023-03-30T23:45:12.433Z,100.00
2023-03-30T23:47:39.541Z,100.00
2023-03-30T23:50:07.702Z,100.00
2023-03-30T23:52:36.728Z,100.00
2023-03-30T23:55:03.702Z,100.00
2023-03-30T23:57:30.611Z,100.00
2023-03-30T23:59:57.413Z,100.00
